Time;durP1;ratioP1;P1;durP2;ratioP2;P2;SDS_P1;SDS_P2;PMS_P1;PMS_P2;Temp;Humidity;BMP_temperature;BMP_pressure;BME280_temperature;BME280_humidity;BME280_pressure;Samples;Min_cycle;Max_cycle;Signal;HPM_P1;HPM_P2
2024/02/27 00:00:11;;;;;;;21.47;11.60;;;;;;;;;;5022934;28;20030;-57
2024/02/27 00:02:36;;;;;;;21.63;11.30;;;;;;;;;;5010720;28;20604;-58
2024/02/27 00:05:01;;;;;;;20.80;10.97;;;;;;;;;;5011174;28;20018;-56
2024/02/27 00:07:26;;;;;;;21.50;11.15;;;;;;;;;;5013732;28;20342;-58
2024/02/27 00:09:52;;;;;;;19.67;10.97;;;;;;;;;;5012810;28;20018;-57
2024/02/27 00:12:17;;;;;;;21.02;10.90;;;;;;;;;;5013591;28;20053;-59
2024/02/27 00:14:42;;;;;;;23.10;11.82;;;;;;;;;;5013796;28;20025;-58
2024/02/27 00:17:08;;;;;;;22.92;12.27;;;;;;;;;;5021643;28;20036;-56
2024/02/27 00:19:33;;;;;;;22.50;12.60;;;;;;;;;;5024618;28;20033;-58
2024/02/27 00:21:58;;;;;;;22.77;12.13;;;;;;;;;;5025408;28;20568;-58
2024/02/27 00:24:23;;;;;;;21.30;11.63;;;;;;;;;;5020881;28;20029;-58
2024/02/27 00:26:48;;;;;;;23.95;12.45;;;;;;;;;;5017637;28;20019;-59
2024/02/27 00:29:14;;;;;;;23.80;13.43;;;;;;;;;;5025808;28;20034;-56
2024/02/27 00:31:39;;;;;;;23.57;12.53;;;;;;;;;;5031484;28;20034;-57
2024/02/27 00:34:04;;;;;;;23.33;13.03;;;;;;;;;;5026267;28;20022;-57
2024/02/27 00:36:29;;;;;;;24.47;12.47;;;;;;;;;;5024400;28;20506;-58
2024/02/27 00:38:54;;;;;;;27.70;13.17;;;;;;;;;;5030858;28;20018;-58
2024/02/27 00:41:19;;;;;;;27.23;13.40;;;;;;;;;;5033603;28;20006;-58
2024/02/27 00:43:45;;;;;;;25.45;13.52;;;;;;;;;;5016708;28;20021;-58
2024/02/27 00:46:10;;;;;;;25.20;12.90;;;;;;;;;;5010289;28;20034;-60
2024/02/27 00:48:35;;;;;;;23.20;12.97;;;;;;;;;;5022404;28;20010;-57
2024/02/27 00:51:00;;;;;;;29.10;14.63;;;;;;;;;;5021569;28;21267;-57
2024/02/27 00:53:25;;;;;;;23.98;12.18;;;;;;;;;;5021222;28;20018;-58
2024/02/27 00:55:50;;;;;;;23.97;12.87;;;;;;;;;;5006079;28;20042;-57
2024/02/27 00:58:16;;;;;;;25.88;13.18;;;;;;;;;;5009596;28;20027;-57
2024/02/27 01:00:41;;;;;;;23.60;13.63;;;;;;;;;;5011246;28;20026;-57
2024/02/27 01:03:06;;;;;;;24.45;13.07;;;;;;;;;;5013804;28;20026;-57
2024/02/27 01:05:31;;;;;;;23.33;12.27;;;;;;;;;;5013023;28;20051;-57
2024/02/27 01:07:56;;;;;;;23.77;12.63;;;;;;;;;;5000363;28;20033;-58
2024/02/27 01:10:21;;;;;;;26.10;13.63;;;;;;;;;;5012686;28;20022;-58
2024/02/27 01:12:47;;;;;;;23.93;12.50;;;;;;;;;;5011038;28;20022;-58
2024/02/27 01:15:12;;;;;;;25.42;13.38;;;;;;;;;;5012045;28;20046;-56
2024/02/27 01:17:37;;;;;;;25.43;13.20;;;;;;;;;;5008571;28;20544;-58
2024/02/27 01:20:03;;;;;;;24.27;12.27;;;;;;;;;;5010065;28;20026;-58
2024/02/27 01:22:28;;;;;;;24.08;12.65;;;;;;;;;;5005664;28;20080;-58
2024/02/27 01:24:54;;;;;;;23.48;12.45;;;;;;;;;;5012707;28;20171;-58
2024/02/27 01:27:19;;;;;;;26.88;14.05;;;;;;;;;;5012091;28;20032;-57
2024/02/27 01:29:44;;;;;;;27.83;13.37;;;;;;;;;;5014441;28;20030;-57
2024/02/27 01:32:10;;;;;;;25.13;12.93;;;;;;;;;;5012950;28;20026;-58
2024/02/27 01:34:35;;;;;;;24.60;12.18;;;;;;;;;;5015548;28;20021;-58
2024/02/27 01:37:00;;;;;;;23.90;12.97;;;;;;;;;;5013310;28;21408;-57
2024/02/27 01:39:26;;;;;;;22.83;11.60;;;;;;;;;;5016682;28;20117;-58
2024/02/27 01:41:51;;;;;;;24.27;12.63;;;;;;;;;;5019678;28;20017;-57
2024/02/27 01:44:16;;;;;;;26.70;12.97;;;;;;;;;;5011180;28;20474;-58
2024/02/27 01:46:42;;;;;;;23.30;12.23;;;;;;;;;;5001851;28;20026;-56
2024/02/27 01:49:08;;;;;;;22.88;12.85;;;;;;;;;;5005216;28;20053;-58
2024/02/27 01:51:33;;;;;;;;;;;;;;;;;;5012564;28;20390;-57
2024/02/27 01:54:00;;;;;;;26.73;12.50;;;;;;;;;;5020964;28;20299;-58
2024/02/27 01:56:25;;;;;;;23.50;12.70;;;;;;;;;;5027069;28;20034;-57
2024/02/27 01:58:50;;;;;;;26.35;13.20;;;;;;;;;;5011301;28;20525;-58
2024/02/27 02:01:17;;;;;;;22.50;11.80;;;;;;;;;;5019896;28;20032;-58
2024/02/27 02:03:44;;;;;;;23.90;12.90;;;;;;;;;;5022046;28;20521;-57
2024/02/27 02:06:09;;;;;;;;;;;;;;;;;;5013126;28;20026;-57
2024/02/27 02:08:34;;;;;;;23.75;12.65;;;;;;;;;;5007083;28;19909;-58
2024/02/27 02:11:00;;;;;;;27.60;14.20;;;;;;;;;;5011125;28;20022;-63
2024/02/27 02:13:25;;;;;;;22.73;12.77;;;;;;;;;;5012283;28;20014;-58
2024/02/27 02:15:50;;;;;;;22.63;12.60;;;;;;;;;;5009063;28;20038;-57
2024/02/27 02:18:15;;;;;;;25.00;13.43;;;;;;;;;;5004190;28;20037;-57
2024/02/27 02:20:41;;;;;;;27.60;13.93;;;;;;;;;;5007696;28;20033;-59
2024/02/27 02:23:06;;;;;;;24.73;13.93;;;;;;;;;;5011399;28;20022;-57
2024/02/27 02:25:32;;;;;;;25.20;14.23;;;;;;;;;;5011870;28;20486;-57
2024/02/27 02:27:57;;;;;;;27.98;14.80;;;;;;;;;;5026231;28;20034;-56
2024/02/27 02:30:23;;;;;;;26.43;14.40;;;;;;;;;;5012110;28;20030;-57
2024/02/27 02:32:48;;;;;;;24.80;13.17;;;;;;;;;;5011275;28;20025;-57
2024/02/27 02:35:14;;;;;;;25.40;12.38;;;;;;;;;;5007212;28;20018;-58
2024/02/27 02:37:40;;;;;;;24.67;13.02;;;;;;;;;;5009820;28;20029;-58
2024/02/27 02:40:06;;;;;;;25.08;13.05;;;;;;;;;;5010919;28;20655;-57
2024/02/27 02:42:31;;;;;;;23.67;13.63;;;;;;;;;;5002677;28;20049;-58
2024/02/27 02:44:56;;;;;;;25.02;12.90;;;;;;;;;;5001705;28;20057;-57
2024/02/27 02:47:21;;;;;;;23.50;13.60;;;;;;;;;;5012130;28;20493;-58
2024/02/27 02:49:47;;;;;;;26.92;13.38;;;;;;;;;;5012464;28;20024;-58
2024/02/27 02:52:12;;;;;;;26.03;13.97;;;;;;;;;;5009807;28;20762;-58
2024/02/27 02:54:37;;;;;;;27.45;14.38;;;;;;;;;;5008767;28;20041;-58
2024/02/27 02:57:02;;;;;;;25.07;12.83;;;;;;;;;;5008942;28;20037;-56
2024/02/27 02:59:27;;;;;;;23.77;13.43;;;;;;;;;;5009019;28;20041;-57
2024/02/27 03:01:52;;;;;;;24.20;13.63;;;;;;;;;;5009339;28;20044;-59
2024/02/27 03:04:18;;;;;;;24.67;13.90;;;;;;;;;;5009658;28;20053;-59
2024/02/27 03:06:43;;;;;;;23.53;13.50;;;;;;;;;;5010390;28;20108;-58
2024/02/27 03:09:08;;;;;;;24.83;12.90;;;;;;;;;;5011234;28;20029;-57
2024/02/27 03:11:33;;;;;;;29.23;14.52;;;;;;;;;;5008856;28;20084;-58
2024/02/27 03:13:58;;;;;;;26.80;14.75;;;;;;;;;;5006112;28;20340;-58
2024/02/27 03:16:24;;;;;;;25.63;14.07;;;;;;;;;;5009861;28;20040;-57
2024/02/27 03:18:49;;;;;;;24.17;12.73;;;;;;;;;;5010654;28;20022;-57
2024/02/27 03:21:14;;;;;;;24.00;12.13;;;;;;;;;;5010200;28;20116;-58
2024/02/27 03:23:39;;;;;;;24.53;13.33;;;;;;;;;;5009358;28;20033;-58
2024/02/27 03:26:05;;;;;;;27.90;13.32;;;;;;;;;;5010429;28;20038;-57
2024/02/27 03:28:30;;;;;;;24.83;13.48;;;;;;;;;;5010450;28;20030;-58
2024/02/27 03:30:55;;;;;;;23.93;12.83;;;;;;;;;;5010699;28;20108;-56
2024/02/27 03:33:20;;;;;;;23.63;13.00;;;;;;;;;;5010917;28;20104;-57
2024/02/27 03:35:45;;;;;;;25.60;14.07;;;;;;;;;;5008661;28;20115;-59
2024/02/27 03:38:11;;;;;;;25.17;13.48;;;;;;;;;;5011147;28;20022;-57
2024/02/27 03:40:36;;;;;;;23.30;12.73;;;;;;;;;;5009098;28;20049;-57
2024/02/27 03:43:01;;;;;;;26.20;14.03;;;;;;;;;;5007331;28;20034;-58
2024/02/27 03:45:26;;;;;;;23.90;13.27;;;;;;;;;;5006064;28;20548;-57
2024/02/27 03:47:51;;;;;;;24.85;12.63;;;;;;;;;;5010792;28;20026;-56
2024/02/27 03:50:16;;;;;;;25.67;13.63;;;;;;;;;;5011766;28;20026;-58
2024/02/27 03:52:42;;;;;;;25.73;13.07;;;;;;;;;;5013663;28;20500;-57
2024/02/27 03:55:08;;;;;;;24.60;13.43;;;;;;;;;;5005873;28;20032;-57
2024/02/27 03:57:33;;;;;;;24.00;12.90;;;;;;;;;;5008205;28;20027;-57
2024/02/27 03:59:58;;;;;;;28.73;13.80;;;;;;;;;;5016210;28;20029;-58
2024/02/27 04:02:23;;;;;;;24.35;13.88;;;;;;;;;;5011420;28;20018;-56
2024/02/27 04:04:49;;;;;;;23.80;13.77;;;;;;;;;;5012725;28;20029;-59
2024/02/27 04:07:14;;;;;;;25.83;12.73;;;;;;;;;;5013497;28;20022;-58
2024/02/27 04:09:39;;;;;;;27.58;14.05;;;;;;;;;;5013335;28;20061;-57
2024/02/27 04:12:04;;;;;;;28.50;14.37;;;;;;;;;;5011931;28;20033;-57
2024/02/27 04:14:29;;;;;;;26.67;14.63;;;;;;;;;;5013906;28;20022;-58
2024/02/27 04:16:54;;;;;;;29.10;14.87;;;;;;;;;;5014024;28;20030;-59
2024/02/27 04:19:20;;;;;;;28.08;15.98;;;;;;;;;;5016069;28;20025;-57
2024/02/27 04:21:45;;;;;;;33.88;17.25;;;;;;;;;;5015492;28;20020;-60
2024/02/27 04:24:10;;;;;;;33.67;17.47;;;;;;;;;;5009213;28;20347;-59
2024/02/27 04:26:35;;;;;;;28.83;15.30;;;;;;;;;;5015469;28;20025;-57
2024/02/27 04:29:00;;;;;;;32.97;16.43;;;;;;;;;;5017839;28;20030;-56
2024/02/27 04:31:25;;;;;;;37.03;17.77;;;;;;;;;;5017600;28;20022;-58
2024/02/27 04:33:51;;;;;;;34.60;16.77;;;;;;;;;;5015258;28;20022;-58
2024/02/27 04:36:16;;;;;;;30.58;15.27;;;;;;;;;;5009722;28;20117;-59
2024/02/27 04:38:42;;;;;;;31.03;14.63;;;;;;;;;;5014343;28;20014;-57
2024/02/27 04:41:07;;;;;;;32.17;15.38;;;;;;;;;;5013323;28;20013;-57
2024/02/27 04:43:32;;;;;;;32.58;16.13;;;;;;;;;;5014779;28;20037;-59
2024/02/27 04:45:58;;;;;;;27.10;15.20;;;;;;;;;;5012785;28;20024;-58
2024/02/27 04:48:23;;;;;;;31.98;17.00;;;;;;;;;;5012616;28;20025;-58
2024/02/27 04:50:48;;;;;;;28.88;15.48;;;;;;;;;;5011747;28;20386;-57
2024/02/27 04:53:13;;;;;;;33.27;17.13;;;;;;;;;;5009230;28;20050;-58
2024/02/27 04:55:38;;;;;;;36.00;18.25;;;;;;;;;;5012994;28;20080;-58
2024/02/27 04:58:04;;;;;;;38.90;18.30;;;;;;;;;;5011786;28;20059;-57
2024/02/27 05:00:29;;;;;;;37.85;18.05;;;;;;;;;;5017764;28;20080;-58
2024/02/27 05:02:54;;;;;;;42.63;18.47;;;;;;;;;;5013049;28;20033;-58
2024/02/27 05:05:20;;;;;;;40.43;18.90;;;;;;;;;;5020080;28;20022;-57
2024/02/27 05:07:45;;;;;;;40.33;17.40;;;;;;;;;;5014522;28;20441;-58
2024/02/27 05:10:10;;;;;;;39.88;19.55;;;;;;;;;;5013311;28;20196;-58
2024/02/27 05:12:35;;;;;;;43.10;18.23;;;;;;;;;;5012732;28;20406;-58
2024/02/27 05:15:00;;;;;;;40.50;17.58;;;;;;;;;;5013308;28;20022;-58
2024/02/27 05:17:25;;;;;;;41.03;16.17;;;;;;;;;;5011993;28;20034;-57
2024/02/27 05:19:50;;;;;;;47.50;20.07;;;;;;;;;;5011788;28;20466;-57
2024/02/27 05:22:16;;;;;;;39.27;17.40;;;;;;;;;;5008632;28;20021;-57
2024/02/27 05:24:41;;;;;;;42.63;18.23;;;;;;;;;;5009996;28;20473;-57
2024/02/27 05:27:06;;;;;;;39.23;18.20;;;;;;;;;;5003388;28;20060;-59
2024/02/27 05:29:32;;;;;;;40.95;18.33;;;;;;;;;;5006307;28;21261;-57
2024/02/27 05:31:58;;;;;;;48.78;20.25;;;;;;;;;;5004721;28;20533;-58
2024/02/27 05:34:23;;;;;;;43.55;18.58;;;;;;;;;;5009302;28;20109;-58
2024/02/27 05:36:48;;;;;;;43.07;18.73;;;;;;;;;;5018404;28;20056;-58
2024/02/27 05:39:14;;;;;;;40.25;18.45;;;;;;;;;;5009813;28;20105;-57
2024/02/27 05:41:39;;;;;;;47.20;19.92;;;;;;;;;;5014377;28;20033;-58
2024/02/27 05:44:04;;;;;;;34.50;16.77;;;;;;;;;;5014354;28;20072;-59
2024/02/27 05:46:29;;;;;;;40.03;17.38;;;;;;;;;;5018115;28;20052;-58
2024/02/27 05:48:54;;;;;;;39.25;18.10;;;;;;;;;;5016641;28;20037;-57
2024/02/27 05:51:20;;;;;;;42.13;18.00;;;;;;;;;;5008989;28;20029;-58
2024/02/27 05:53:45;;;;;;;44.30;18.95;;;;;;;;;;5004435;28;20029;-55
2024/02/27 05:56:10;;;;;;;39.23;18.37;;;;;;;;;;5010043;28;20041;-59
2024/02/27 05:58:37;;;;;;;40.37;16.97;;;;;;;;;;5010050;28;20044;-57
2024/02/27 06:01:02;;;;;;;41.40;18.88;;;;;;;;;;5008899;28;20022;-56
2024/02/27 06:03:28;;;;;;;42.65;19.30;;;;;;;;;;5012609;28;20437;-56
2024/02/27 06:05:53;;;;;;;39.63;18.38;;;;;;;;;;5021319;28;20077;-61
2024/02/27 06:08:18;;;;;;;42.33;18.43;;;;;;;;;;5027635;28;20104;-59
2024/02/27 06:10:44;;;;;;;39.70;17.30;;;;;;;;;;5011997;28;20583;-55
2024/02/27 06:13:09;;;;;;;38.42;16.55;;;;;;;;;;5013329;28;20453;-57
2024/02/27 06:15:37;;;;;;;37.00;16.48;;;;;;;;;;5012933;28;20030;-58
2024/02/27 06:18:02;;;;;;;37.78;16.95;;;;;;;;;;5012649;28;20528;-57
2024/02/27 06:23:12;;;;;;;36.15;17.10;;;;;;;;;;5012151;28;20500;-58
2024/02/27 06:25:37;;;;;;;36.47;17.48;;;;;;;;;;5012056;28;20018;-58
2024/02/27 06:28:03;;;;;;;33.38;15.65;;;;;;;;;;5012151;28;20033;-57
2024/02/27 06:30:28;;;;;;;36.55;16.33;;;;;;;;;;5019274;28;20030;-58
2024/02/27 06:32:54;;;;;;;31.38;15.85;;;;;;;;;;5012446;28;20025;-57
2024/02/27 06:35:19;;;;;;;36.05;16.95;;;;;;;;;;5012796;28;20022;-56
2024/02/27 06:37:44;;;;;;;33.45;16.20;;;;;;;;;;5013238;28;20033;-57
2024/02/27 06:40:10;;;;;;;35.73;17.20;;;;;;;;;;5012980;28;20028;-61
2024/02/27 06:42:36;;;;;;;32.28;15.65;;;;;;;;;;5012346;28;20121;-58
2024/02/27 06:45:08;;;;;;;33.85;17.00;;;;;;;;;;5010017;28;20028;-57
2024/02/27 06:47:36;;;;;;;36.05;17.38;;;;;;;;;;5007345;28;20029;-59
2024/02/27 06:50:01;;;;;;;35.88;17.50;;;;;;;;;;5013127;28;20022;-58
2024/02/27 06:52:27;;;;;;;35.53;18.08;;;;;;;;;;5012261;28;20234;-57
2024/02/27 06:54:52;;;;;;;34.17;16.87;;;;;;;;;;5010482;28;20117;-57
2024/02/27 06:57:17;;;;;;;37.17;18.00;;;;;;;;;;5009681;28;20030;-57
2024/02/27 06:59:42;;;;;;;35.27;17.43;;;;;;;;;;5010519;28;20390;-57
2024/02/27 07:02:07;;;;;;;40.03;18.03;;;;;;;;;;5018490;28;20439;-58
2024/02/27 07:04:33;;;;;;;35.20;18.15;;;;;;;;;;5021502;28;20025;-58
2024/02/27 07:06:59;;;;;;;42.05;17.30;;;;;;;;;;5015016;28;20036;-57
2024/02/27 07:09:24;;;;;;;37.13;18.88;;;;;;;;;;5022380;28;20022;-57
2024/02/27 07:11:49;;;;;;;36.85;17.30;;;;;;;;;;5019740;28;20112;-56
2024/02/27 07:14:14;;;;;;;42.78;20.13;;;;;;;;;;5012533;28;20034;-56
2024/02/27 07:16:40;;;;;;;39.40;17.30;;;;;;;;;;5012090;28;20034;-57
2024/02/27 07:19:05;;;;;;;36.07;18.40;;;;;;;;;;5012539;28;20026;-56
2024/02/27 07:21:30;;;;;;;42.35;17.90;;;;;;;;;;5012857;28;20068;-57
2024/02/27 07:23:55;;;;;;;35.33;18.02;;;;;;;;;;5011717;28;20418;-58
2024/02/27 07:26:21;;;;;;;38.60;18.52;;;;;;;;;;5011471;28;20044;-57
2024/02/27 07:28:46;;;;;;;42.10;19.53;;;;;;;;;;5009495;28;20439;-57
2024/02/27 07:31:11;;;;;;;40.37;17.47;;;;;;;;;;5011259;28;20037;-58
2024/02/27 07:33:38;;;;;;;38.33;18.90;;;;;;;;;;5012092;28;20394;-57
2024/02/27 07:36:03;;;;;;;;;;;;;;;;;;5012069;28;20030;-56
2024/02/27 07:38:28;;;;;;;34.33;16.13;;;;;;;;;;5011775;28;19909;-57
2024/02/27 07:40:53;;;;;;;42.60;19.95;;;;;;;;;;5011861;28;20022;-58
2024/02/27 07:43:18;;;;;;;39.67;19.10;;;;;;;;;;5010262;28;20431;-57
2024/02/27 07:45:44;;;;;;;39.37;18.53;;;;;;;;;;5011726;28;20032;-58
2024/02/27 07:48:09;;;;;;;32.77;16.90;;;;;;;;;;5012427;28;20022;-59
2024/02/27 07:50:34;;;;;;;40.10;19.03;;;;;;;;;;5011457;28;20028;-57
2024/02/27 07:52:59;;;;;;;39.77;18.27;;;;;;;;;;5012899;28;20359;-57
2024/02/27 07:55:24;;;;;;;35.05;16.90;;;;;;;;;;5011861;28;20545;-58
2024/02/27 07:57:49;;;;;;;36.58;17.20;;;;;;;;;;5016262;28;20105;-57
2024/02/27 08:00:15;;;;;;;39.85;16.70;;;;;;;;;;5017795;28;20049;-58
2024/02/27 08:02:40;;;;;;;35.65;17.00;;;;;;;;;;5018354;28;20024;-56
2024/02/27 08:05:05;;;;;;;35.20;18.60;;;;;;;;;;5013971;28;20027;-57
2024/02/27 08:07:33;;;;;;;32.80;16.23;;;;;;;;;;5002197;28;20022;-58
2024/02/27 08:09:58;;;;;;;33.78;16.88;;;;;;;;;;5007212;28;20026;-58
2024/02/27 08:12:24;;;;;;;38.17;18.47;;;;;;;;;;5011932;28;20018;-57
2024/02/27 08:14:49;;;;;;;41.40;17.67;;;;;;;;;;5011362;28;20030;-57
2024/02/27 08:17:14;;;;;;;39.43;17.90;;;;;;;;;;5013533;28;20478;-56
2024/02/27 08:19:40;;;;;;;43.90;19.63;;;;;;;;;;5013839;28;20068;-57
2024/02/27 08:22:05;;;;;;;42.75;19.33;;;;;;;;;;5017972;28;20026;-57
2024/02/27 08:24:31;;;;;;;41.15;17.15;;;;;;;;;;5017291;28;20385;-58
2024/02/27 08:26:56;;;;;;;52.78;20.73;;;;;;;;;;5022082;28;20084;-58
2024/02/27 08:29:22;;;;;;;45.30;18.57;;;;;;;;;;5018879;28;20026;-62
2024/02/27 08:31:47;;;;;;;56.22;20.63;;;;;;;;;;5017451;28;20025;-58
2024/02/27 08:34:12;;;;;;;54.95;19.88;;;;;;;;;;5016695;28;20053;-57
2024/02/27 08:36:37;;;;;;;55.42;19.23;;;;;;;;;;5017290;28;20037;-57
2024/02/27 08:39:04;;;;;;;55.50;21.07;;;;;;;;;;5018117;28;20033;-57
2024/02/27 08:41:29;;;;;;;53.03;20.15;;;;;;;;;;5018912;28;20022;-57
2024/02/27 08:43:54;;;;;;;55.17;21.63;;;;;;;;;;5016827;28;20022;-56
2024/02/27 08:46:19;;;;;;;55.67;20.42;;;;;;;;;;5017028;28;20030;-57
2024/02/27 08:48:45;;;;;;;46.20;18.27;;;;;;;;;;5017553;28;20437;-58
2024/02/27 08:51:10;;;;;;;50.03;19.23;;;;;;;;;;5017706;28;20026;-58
2024/02/27 08:53:36;;;;;;;54.67;20.80;;;;;;;;;;5018240;28;20026;-59
2024/02/27 08:56:01;;;;;;;54.17;21.00;;;;;;;;;;5017993;28;20169;-58
2024/02/27 08:58:26;;;;;;;50.73;20.17;;;;;;;;;;5019072;28;20017;-57
2024/02/27 09:00:51;;;;;;;50.80;21.27;;;;;;;;;;5019756;28;20423;-59
2024/02/27 09:03:16;;;;;;;54.50;22.37;;;;;;;;;;5021650;28;20029;-58
2024/02/27 09:05:43;;;;;;;52.08;21.90;;;;;;;;;;5016361;28;20029;-56
2024/02/27 09:08:08;;;;;;;53.28;21.70;;;;;;;;;;4997423;28;20065;-57
2024/02/27 09:10:33;;;;;;;53.37;21.93;;;;;;;;;;4995164;28;20058;-57
2024/02/27 09:12:58;;;;;;;53.83;22.57;;;;;;;;;;5008270;28;20033;-59
2024/02/27 09:15:24;;;;;;;45.85;21.17;;;;;;;;;;5013632;28;20072;-57
2024/02/27 09:17:49;;;;;;;49.70;20.70;;;;;;;;;;5013359;28;20034;-58
2024/02/27 09:20:14;;;;;;;54.47;22.75;;;;;;;;;;5014604;28;20026;-58
2024/02/27 09:22:39;;;;;;;51.73;21.73;;;;;;;;;;5016318;28;20034;-56
2024/02/27 09:25:05;;;;;;;54.45;22.48;;;;;;;;;;5015154;28;20100;-57
2024/02/27 09:27:31;;;;;;;56.35;22.05;;;;;;;;;;5014172;28;20062;-58
2024/02/27 09:29:57;;;;;;;52.45;22.35;;;;;;;;;;5012769;28;20069;-58
2024/02/27 09:32:22;;;;;;;53.25;22.15;;;;;;;;;;5012579;28;20625;-57
2024/02/27 09:34:49;;;;;;;54.83;20.33;;;;;;;;;;5012675;28;20030;-62
2024/02/27 09:37:14;;;;;;;54.60;21.35;;;;;;;;;;5014466;28;20022;-58
2024/02/27 09:39:39;;;;;;;48.70;20.63;;;;;;;;;;5014081;28;20084;-57
2024/02/27 09:42:09;;;;;;;47.93;22.27;;;;;;;;;;5013301;28;20032;-57
2024/02/27 09:44:37;;;;;;;45.30;20.10;;;;;;;;;;5012565;28;20038;-58
2024/02/27 09:47:03;;;;;;;51.20;20.85;;;;;;;;;;5013078;28;20025;-58
2024/02/27 09:49:29;;;;;;;43.97;18.23;;;;;;;;;;5010784;28;20075;-58
2024/02/27 09:51:55;;;;;;;47.60;20.20;;;;;;;;;;5012997;28;20013;-57
2024/02/27 09:54:20;;;;;;;54.22;19.70;;;;;;;;;;5012964;28;20025;-58
2024/02/27 09:56:46;;;;;;;51.30;18.25;;;;;;;;;;5013511;28;20029;-56
2024/02/27 09:59:11;;;;;;;44.75;18.95;;;;;;;;;;5013280;28;20398;-58
2024/02/27 10:01:36;;;;;;;49.57;19.07;;;;;;;;;;5012788;28;20093;-57
2024/02/27 10:04:02;;;;;;;59.07;22.33;;;;;;;;;;5011547;28;20492;-59
2024/02/27 10:06:30;;;;;;;47.88;18.13;;;;;;;;;;5007559;28;20057;-58
2024/02/27 10:08:56;;;;;;;58.13;18.38;;;;;;;;;;5012939;28;20017;-58
2024/02/27 10:11:22;;;;;;;59.78;20.73;;;;;;;;;;5012909;28;20083;-58
2024/02/27 10:13:47;;;;;;;45.80;17.77;;;;;;;;;;5012900;28;20022;-58
2024/02/27 10:16:13;;;;;;;46.50;17.10;;;;;;;;;;5011288;28;20023;-57
2024/02/27 10:18:38;;;;;;;54.03;18.52;;;;;;;;;;5015437;28;20339;-57
2024/02/27 10:21:04;;;;;;;48.67;16.70;;;;;;;;;;5007722;28;20022;-57
2024/02/27 10:23:29;;;;;;;51.72;17.52;;;;;;;;;;5018155;28;20101;-56
2024/02/27 10:26:05;;;;;;;51.23;18.30;;;;;;;;;;5012182;28;20614;-58
2024/02/27 10:28:31;;;;;;;59.40;20.23;;;;;;;;;;5012514;28;20490;-57
2024/02/27 10:30:56;;;;;;;57.13;18.98;;;;;;;;;;5011092;28;20041;-57
2024/02/27 10:33:22;;;;;;;50.47;19.10;;;;;;;;;;5011109;28;20026;-56
2024/02/27 10:35:48;;;;;;;60.78;18.60;;;;;;;;;;5019055;28;20025;-58
2024/02/27 10:38:13;;;;;;;49.47;17.90;;;;;;;;;;5012826;28;20026;-57
2024/02/27 10:40:38;;;;;;;53.63;17.17;;;;;;;;;;5009168;28;20014;-58
2024/02/27 10:43:04;;;;;;;61.17;21.02;;;;;;;;;;5012424;28;20537;-58
2024/02/27 10:45:32;;;;;;;58.70;19.07;;;;;;;;;;5012739;28;20022;-57
2024/02/27 10:47:59;;;;;;;64.85;19.73;;;;;;;;;;5012798;28;20071;-59
2024/02/27 10:50:26;;;;;;;58.90;18.60;;;;;;;;;;5012284;28;20022;-57
2024/02/27 10:52:53;;;;;;;54.88;19.23;;;;;;;;;;5011872;28;20022;-56
2024/02/27 10:55:19;;;;;;;54.25;19.58;;;;;;;;;;5015886;28;20481;-57
2024/02/27 10:57:45;;;;;;;47.30;16.52;;;;;;;;;;5012746;28;20030;-57
2024/02/27 11:00:11;;;;;;;53.97;19.27;;;;;;;;;;5012255;28;20021;-58
2024/02/27 11:02:40;;;;;;;55.15;18.73;;;;;;;;;;5012273;28;20058;-56
2024/02/27 11:05:06;;;;;;;58.90;19.83;;;;;;;;;;5012309;28;20113;-57
2024/02/27 11:07:31;;;;;;;54.97;20.27;;;;;;;;;;5011814;28;20061;-58
2024/02/27 11:09:58;;;;;;;58.50;19.77;;;;;;;;;;5012265;28;20038;-58
2024/02/27 11:12:24;;;;;;;;;;;;;;;;;;5010979;28;20030;-57
2024/02/27 11:14:52;;;;;;;58.28;18.90;;;;;;;;;;5010923;28;19905;-57
2024/02/27 11:17:23;;;;;;;58.95;18.38;;;;;;;;;;5013350;28;20033;-59
2024/02/27 11:19:53;;;;;;;53.60;20.33;;;;;;;;;;5015899;28;20014;-57
2024/02/27 11:22:25;;;;;;;45.03;16.08;;;;;;;;;;5019791;28;20105;-58
2024/02/27 11:24:50;;;;;;;43.47;18.90;;;;;;;;;;5015493;28;20022;-57
2024/02/27 11:27:25;;;;;;;51.50;19.33;;;;;;;;;;5022533;28;20363;-56
2024/02/27 11:29:53;;;;;;;44.40;18.15;;;;;;;;;;5018816;28;20026;-57
2024/02/27 11:32:19;;;;;;;45.72;17.55;;;;;;;;;;5011697;28;20026;-58
2024/02/27 11:34:45;;;;;;;44.55;18.10;;;;;;;;;;5010335;28;20033;-57
2024/02/27 11:37:19;;;;;;;47.33;17.42;;;;;;;;;;5011775;28;20030;-58
2024/02/27 11:39:44;;;;;;;49.95;18.20;;;;;;;;;;5012334;28;20025;-59
2024/02/27 11:42:24;;;;;;;51.45;18.52;;;;;;;;;;5011571;28;20097;-57
2024/02/27 11:45:03;;;;;;;47.33;17.40;;;;;;;;;;5012428;28;20074;-57
2024/02/27 11:47:32;;;;;;;42.67;16.73;;;;;;;;;;5012515;28;20473;-58
2024/02/27 11:49:57;;;;;;;43.10;16.67;;;;;;;;;;5010203;28;20535;-58
2024/02/27 11:52:22;;;;;;;47.13;17.75;;;;;;;;;;5013139;28;20049;-58
2024/02/27 11:54:47;;;;;;;46.47;18.13;;;;;;;;;;5015186;28;20064;-57
2024/02/27 11:57:13;;;;;;;48.73;18.13;;;;;;;;;;5017986;28;20367;-60
2024/02/27 11:59:38;;;;;;;46.90;17.48;;;;;;;;;;5028084;28;20041;-58
2024/02/27 12:02:04;;;;;;;42.25;17.55;;;;;;;;;;5017805;28;20032;-57
2024/02/27 12:04:29;;;;;;;53.27;19.77;;;;;;;;;;5016239;28;20018;-58
2024/02/27 12:06:55;;;;;;;41.53;16.48;;;;;;;;;;5023416;28;20453;-59
2024/02/27 12:09:26;;;;;;;46.50;18.70;;;;;;;;;;5010177;28;20037;-58
2024/02/27 12:11:52;;;;;;;50.80;17.60;;;;;;;;;;5013365;28;20117;-58
2024/02/27 12:14:18;;;;;;;47.30;17.85;;;;;;;;;;5021304;28;20536;-57
2024/02/27 12:16:44;;;;;;;51.30;18.90;;;;;;;;;;5016343;28;20021;-58
2024/02/27 12:19:09;;;;;;;48.07;18.77;;;;;;;;;;5013419;28;20656;-58
2024/02/27 12:21:34;;;;;;;46.60;17.17;;;;;;;;;;5030068;28;20422;-58
2024/02/27 12:24:07;;;;;;;56.70;20.23;;;;;;;;;;5016737;28;20030;-57
2024/02/27 12:26:32;;;;;;;52.70;18.95;;;;;;;;;;5014689;28;20018;-57
2024/02/27 12:28:57;;;;;;;52.75;18.38;;;;;;;;;;5015937;28;20048;-57
2024/02/27 12:31:23;;;;;;;57.87;18.47;;;;;;;;;;5015296;28;20467;-58
2024/02/27 12:33:49;;;;;;;46.70;15.93;;;;;;;;;;5019031;28;20018;-57
2024/02/27 12:36:14;;;;;;;44.00;17.15;;;;;;;;;;5013225;28;20030;-57
2024/02/27 12:38:48;;;;;;;50.63;19.97;;;;;;;;;;4999851;28;20045;-57
2024/02/27 12:41:13;;;;;;;53.22;19.50;;;;;;;;;;5001259;28;20037;-56
2024/02/27 12:43:38;;;;;;;54.25;19.30;;;;;;;;;;5013098;28;20026;-58
2024/02/27 12:46:03;;;;;;;60.73;20.43;;;;;;;;;;5015244;28;20068;-56
2024/02/27 12:48:29;;;;;;;53.88;20.77;;;;;;;;;;5015282;28;20024;-57
2024/02/27 12:50:54;;;;;;;53.60;18.83;;;;;;;;;;5019226;28;20033;-57
2024/02/27 12:53:19;;;;;;;51.60;18.35;;;;;;;;;;5021206;28;20445;-57
2024/02/27 12:55:45;;;;;;;53.10;19.00;;;;;;;;;;5013872;28;20475;-58
2024/02/27 12:58:10;;;;;;;55.00;18.88;;;;;;;;;;5014444;28;20013;-58
2024/02/27 13:00:36;;;;;;;61.67;20.80;;;;;;;;;;5014154;28;20065;-57
2024/02/27 13:03:02;;;;;;;57.50;21.27;;;;;;;;;;5019943;28;20076;-57
2024/02/27 13:05:27;;;;;;;61.08;19.92;;;;;;;;;;5013920;28;20072;-59
2024/02/27 13:07:53;;;;;;;54.65;18.52;;;;;;;;;;5014150;28;20378;-58
2024/02/27 13:10:20;;;;;;;55.15;18.33;;;;;;;;;;5004407;28;20056;-58
2024/02/27 13:12:46;;;;;;;49.45;17.92;;;;;;;;;;4999387;28;20080;-59
2024/02/27 13:15:12;;;;;;;59.08;20.85;;;;;;;;;;5008729;28;20034;-59
2024/02/27 13:17:37;;;;;;;56.28;19.02;;;;;;;;;;5013963;28;20041;-57
2024/02/27 13:20:03;;;;;;;45.70;18.13;;;;;;;;;;5013662;28;20026;-57
2024/02/27 13:22:29;;;;;;;60.92;20.25;;;;;;;;;;5013304;28;20029;-59
2024/02/27 13:24:54;;;;;;;59.03;20.40;;;;;;;;;;5013335;28;20204;-57
2024/02/27 13:27:19;;;;;;;53.75;19.60;;;;;;;;;;5013218;28;20021;-57
2024/02/27 13:29:44;;;;;;;50.97;18.43;;;;;;;;;;5013670;28;20092;-57
2024/02/27 13:32:10;;;;;;;57.78;19.45;;;;;;;;;;5010486;28;20017;-59
2024/02/27 13:34:35;;;;;;;52.28;17.90;;;;;;;;;;5013162;28;20097;-58
2024/02/27 13:37:00;;;;;;;53.72;19.55;;;;;;;;;;5011414;28;20030;-57
2024/02/27 13:39:25;;;;;;;56.15;20.42;;;;;;;;;;5013411;28;20013;-57
2024/02/27 13:41:51;;;;;;;55.60;20.37;;;;;;;;;;5013457;28;20029;-58
2024/02/27 13:44:17;;;;;;;53.50;19.63;;;;;;;;;;5013930;28;20048;-57
2024/02/27 13:46:42;;;;;;;46.63;18.38;;;;;;;;;;5021635;28;20049;-58
2024/02/27 13:49:08;;;;;;;43.70;18.20;;;;;;;;;;5019325;28;20540;-57
2024/02/27 13:51:33;;;;;;;55.60;19.80;;;;;;;;;;5013418;28;20050;-62
2024/02/27 13:53:59;;;;;;;52.17;18.83;;;;;;;;;;5000363;28;20022;-56
2024/02/27 13:56:24;;;;;;;50.70;18.20;;;;;;;;;;4998933;28;20116;-58
2024/02/27 13:58:49;;;;;;;51.90;19.10;;;;;;;;;;5015865;28;20518;-57
2024/02/27 14:01:15;;;;;;;46.93;18.03;;;;;;;;;;5014026;28;20018;-58
2024/02/27 14:03:40;;;;;;;47.15;17.48;;;;;;;;;;5013728;28;20478;-58
2024/02/27 14:06:05;;;;;;;45.40;16.50;;;;;;;;;;5013859;28;20029;-58
2024/02/27 14:08:30;;;;;;;48.17;16.10;;;;;;;;;;5028745;28;20036;-57
2024/02/27 14:10:56;;;;;;;44.33;15.38;;;;;;;;;;5029087;28;20021;-59